Time;durP1;ratioP1;P1;durP2;ratioP2;P2;SDS_P1;SDS_P2;PMS_P1;PMS_P2;Temp;Humidity;BMP_temperature;BMP_pressure;BME280_temperature;BME280_humidity;BME280_pressure;Samples;Min_cycle;Max_cycle;Signal;HPM_P1;HPM_P2
2021/07/15 00:01:28;;;;;;;1.23;1.13;;;;;;;21.20;71.48;99897.69;;;;-59
2021/07/15 00:04:28;;;;;;;1.27;1.17;;;;;;;21.19;71.48;99894.11;;;;-52
2021/07/15 00:07:28;;;;;;;1.09;1.09;;;;;;;21.19;71.46;99885.14;;;;-52
2021/07/15 00:10:28;;;;;;;1.59;1.10;;;;;;;21.19;71.55;99881.98;;;;-52
2021/07/15 00:13:28;;;;;;;1.49;1.27;;;;;;;21.18;71.40;99875.29;;;;-50
2021/07/15 00:16:28;;;;;;;1.16;1.10;;;;;;;21.18;71.53;99874.48;;;;-52
2021/07/15 00:19:28;;;;;;;1.19;1.10;;;;;;;21.17;71.54;99877.11;;;;-52
2021/07/15 00:22:28;;;;;;;1.77;1.08;;;;;;;21.17;71.46;99876.78;;;;-49
2021/07/15 00:25:28;;;;;;;1.25;1.19;;;;;;;21.17;71.57;99881.69;;;;-52
2021/07/15 00:28:28;;;;;;;1.82;1.11;;;;;;;21.16;71.44;99876.28;;;;-58
2021/07/15 00:31:28;;;;;;;1.21;1.09;;;;;;;21.16;71.50;99864.08;;;;-59
2021/07/15 00:34:28;;;;;;;1.06;1.00;;;;;;;21.15;71.49;99861.57;;;;-58
2021/07/15 00:37:28;;;;;;;1.17;1.10;;;;;;;21.15;71.45;99867.84;;;;-59
2021/07/15 00:40:28;;;;;;;1.00;1.00;;;;;;;21.15;71.45;99864.99;;;;-49
2021/07/15 00:43:28;;;;;;;1.02;1.00;;;;;;;21.14;71.49;99854.95;;;;-50
2021/07/15 00:46:28;;;;;;;1.13;1.05;;;;;;;21.13;71.51;99846.27;;;;-49
2021/07/15 00:49:28;;;;;;;1.10;1.08;;;;;;;21.13;71.52;99851.81;;;;-50
2021/07/15 00:52:28;;;;;;;1.74;1.53;;;;;;;21.13;71.41;99844.41;;;;-51
2021/07/15 00:55:28;;;;;;;1.07;1.01;;;;;;;21.12;71.58;99835.91;;;;-50
2021/07/15 00:58:28;;;;;;;1.11;1.11;;;;;;;21.12;71.46;99835.02;;;;-58
2021/07/15 01:01:28;;;;;;;1.14;1.10;;;;;;;21.11;71.54;99837.41;;;;-52
2021/07/15 01:04:28;;;;;;;1.20;1.10;;;;;;;21.10;71.46;99836.83;;;;-59
2021/07/15 01:07:28;;;;;;;1.12;1.10;;;;;;;21.11;71.50;99846.53;;;;-52
2021/07/15 01:10:28;;;;;;;0.97;0.95;;;;;;;21.10;71.48;99865.66;;;;-52
2021/07/15 01:13:28;;;;;;;1.00;1.00;;;;;;;21.10;71.48;99870.41;;;;-51
2021/07/15 01:16:28;;;;;;;1.67;1.10;;;;;;;21.10;71.56;99868.94;;;;-51
2021/07/15 01:19:28;;;;;;;1.20;1.10;;;;;;;21.09;71.58;99867.34;;;;-50
2021/07/15 01:23:28;;;;;;;1.05;1.03;;;;;;;21.09;71.57;99868.64;;;;-49
2021/07/15 01:26:28;;;;;;;1.00;1.00;;;;;;;21.09;71.52;99874.50;;;;-60
2021/07/15 01:29:28;;;;;;;1.20;1.10;;;;;;;21.08;71.46;99867.16;;;;-59
2021/07/15 01:32:28;;;;;;;1.01;1.01;;;;;;;21.08;71.58;99871.08;;;;-58
2021/07/15 01:35:28;;;;;;;1.21;1.14;;;;;;;21.07;71.55;99876.14;;;;-52
2021/07/15 01:38:28;;;;;;;1.04;1.04;;;;;;;21.08;71.53;99878.89;;;;-52
2021/07/15 01:41:28;;;;;;;1.85;1.00;;;;;;;21.07;71.53;99880.94;;;;-59
2021/07/15 01:44:28;;;;;;;1.14;1.00;;;;;;;21.07;71.53;99882.02;;;;-50
2021/07/15 01:47:28;;;;;;;1.00;1.00;;;;;;;21.06;71.56;99884.77;;;;-52
2021/07/15 01:50:28;;;;;;;1.08;1.00;;;;;;;21.06;71.56;99886.56;;;;-49
2021/07/15 01:53:28;;;;;;;0.93;0.93;;;;;;;21.06;71.56;99892.52;;;;-52
2021/07/15 01:56:28;;;;;;;1.18;1.10;;;;;;;21.05;71.51;99892.38;;;;-52
2021/07/15 01:59:28;;;;;;;1.11;1.09;;;;;;;21.05;71.55;99893.02;;;;-49
2021/07/15 02:02:28;;;;;;;1.06;1.03;;;;;;;21.05;71.62;99892.54;;;;-49
2021/07/15 02:05:28;;;;;;;0.98;0.98;;;;;;;21.05;71.55;99894.09;;;;-49
2021/07/15 02:08:28;;;;;;;1.00;1.00;;;;;;;21.04;71.49;99897.66;;;;-50
2021/07/15 02:11:33;;;;;;;1.65;1.09;;;;;;;21.04;71.54;99899.94;;;;-59
2021/07/15 02:14:28;;;;;;;1.02;1.02;;;;;;;21.04;71.52;99900.05;;;;-59
2021/07/15 02:17:28;;;;;;;1.02;1.02;;;;;;;21.04;71.54;99896.05;;;;-58
2021/07/15 02:20:28;;;;;;;1.11;1.04;;;;;;;21.04;71.58;99895.06;;;;-52
2021/07/15 02:23:28;;;;;;;1.12;1.08;;;;;;;21.04;71.56;99900.94;;;;-51
2021/07/15 02:26:28;;;;;;;0.95;0.95;;;;;;;21.03;71.55;99897.52;;;;-58
2021/07/15 02:29:28;;;;;;;1.01;1.01;;;;;;;21.03;71.50;99893.30;;;;-52
2021/07/15 02:32:28;;;;;;;1.05;1.03;;;;;;;21.02;71.55;99892.30;;;;-52
2021/07/15 02:35:27;;;;;;;1.08;1.05;;;;;;;21.03;71.51;99893.46;;;;-52
2021/07/15 02:38:28;;;;;;;1.12;1.03;;;;;;;21.02;71.52;99893.94;;;;-52
2021/07/15 02:41:28;;;;;;;1.00;0.99;;;;;;;21.02;71.55;99895.50;;;;-52
2021/07/15 02:44:28;;;;;;;0.91;0.91;;;;;;;21.01;71.56;99895.42;;;;-51
2021/07/15 02:47:28;;;;;;;0.96;0.94;;;;;;;21.01;71.62;99893.80;;;;-52
2021/07/15 02:50:28;;;;;;;0.90;0.90;;;;;;;21.01;71.56;99890.20;;;;-52
2021/07/15 02:53:28;;;;;;;1.00;1.00;;;;;;;21.01;71.54;99891.20;;;;-52
2021/07/15 02:56:28;;;;;;;1.21;1.11;;;;;;;21.01;71.59;99885.34;;;;-51
2021/07/15 02:59:28;;;;;;;1.18;1.09;;;;;;;21.00;71.50;99869.94;;;;-52
2021/07/15 03:02:28;;;;;;;1.11;1.05;;;;;;;21.01;71.56;99868.23;;;;-49
2021/07/15 03:05:28;;;;;;;0.95;0.95;;;;;;;21.00;71.53;99876.55;;;;-49
2021/07/15 03:08:28;;;;;;;1.00;1.00;;;;;;;21.00;71.58;99890.39;;;;-49
2021/07/15 03:11:28;;;;;;;0.90;0.90;;;;;;;21.00;71.57;99893.87;;;;-50
2021/07/15 03:14:28;;;;;;;0.90;0.90;;;;;;;20.99;71.50;99894.05;;;;-49
2021/07/15 03:17:28;;;;;;;1.01;1.01;;;;;;;20.99;71.54;99897.47;;;;-49
2021/07/15 03:20:28;;;;;;;1.00;1.00;;;;;;;20.99;71.49;99902.76;;;;-49
2021/07/15 03:23:28;;;;;;;0.93;0.93;;;;;;;20.99;71.53;99911.41;;;;-49
2021/07/15 03:26:28;;;;;;;1.14;1.10;;;;;;;20.99;71.52;99911.25;;;;-50
2021/07/15 03:29:28;;;;;;;1.20;1.11;;;;;;;20.99;71.53;99903.34;;;;-49
2021/07/15 03:32:28;;;;;;;1.00;1.00;;;;;;;20.98;71.56;99900.59;;;;-49
2021/07/15 03:35:27;;;;;;;1.00;1.00;;;;;;;20.98;71.54;99906.53;;;;-49
2021/07/15 03:38:28;;;;;;;0.90;0.90;;;;;;;20.98;71.52;99905.73;;;;-50
2021/07/15 03:41:28;;;;;;;0.91;0.91;;;;;;;20.98;71.52;99900.92;;;;-49
2021/07/15 03:44:28;;;;;;;0.95;0.95;;;;;;;20.97;71.48;99904.33;;;;-52
2021/07/15 03:47:28;;;;;;;0.90;0.90;;;;;;;20.98;71.55;99909.80;;;;-49
2021/07/15 03:50:27;;;;;;;1.00;1.00;;;;;;;20.97;71.60;99912.08;;;;-49
2021/07/15 03:53:28;;;;;;;0.97;0.97;;;;;;;20.97;71.56;99914.77;;;;-52
2021/07/15 03:56:28;;;;;;;0.92;0.92;;;;;;;20.97;71.56;99913.20;;;;-52
2021/07/15 03:59:28;;;;;;;1.00;1.00;;;;;;;20.96;71.53;99912.17;;;;-52
2021/07/15 04:02:28;;;;;;;1.00;1.00;;;;;;;20.97;71.51;99919.82;;;;-52
2021/07/15 04:05:28;;;;;;;0.91;0.91;;;;;;;20.96;71.56;99920.47;;;;-52
2021/07/15 04:08:28;;;;;;;0.95;0.95;;;;;;;20.95;71.52;99931.06;;;;-51
2021/07/15 04:11:27;;;;;;;0.99;0.99;;;;;;;20.95;71.61;99939.61;;;;-51
2021/07/15 04:14:28;;;;;;;0.97;0.97;;;;;;;20.95;71.55;99937.58;;;;-49
2021/07/15 04:17:28;;;;;;;0.90;0.90;;;;;;;20.94;71.50;99924.50;;;;-52
2021/07/15 04:20:28;;;;;;;0.93;0.93;;;;;;;20.95;71.50;99920.33;;;;-50
2021/07/15 04:23:28;;;;;;;1.02;1.00;;;;;;;20.93;71.57;99912.27;;;;-52
2021/07/15 04:26:28;;;;;;;0.99;0.99;;;;;;;20.94;71.56;99916.08;;;;-52
2021/07/15 04:29:28;;;;;;;0.90;0.90;;;;;;;20.94;71.59;99920.34;;;;-52
2021/07/15 04:32:28;;;;;;;0.91;0.91;;;;;;;20.93;71.56;99918.78;;;;-51
2021/07/15 04:35:28;;;;;;;0.88;0.88;;;;;;;20.93;71.53;99917.16;;;;-49
2021/07/15 04:38:28;;;;;;;0.80;0.80;;;;;;;20.93;71.59;99915.77;;;;-52
2021/07/15 04:41:27;;;;;;;0.90;0.90;;;;;;;20.93;71.53;99916.82;;;;-51
2021/07/15 04:44:28;;;;;;;0.87;0.87;;;;;;;20.93;71.56;99918.38;;;;-52
2021/07/15 04:47:28;;;;;;;0.95;0.95;;;;;;;20.93;71.51;99917.97;;;;-51
2021/07/15 04:50:27;;;;;;;0.80;0.80;;;;;;;20.93;71.52;99911.45;;;;-52
2021/07/15 04:53:28;;;;;;;0.95;0.95;;;;;;;20.92;71.47;99917.67;;;;-58
2021/07/15 04:56:28;;;;;;;1.00;1.00;;;;;;;20.93;71.51;99929.22;;;;-52
2021/07/15 04:59:28;;;;;;;1.10;1.04;;;;;;;20.92;71.51;99924.89;;;;-51
2021/07/15 05:02:28;;;;;;;1.00;1.00;;;;;;;20.92;71.55;99934.93;;;;-51
2021/07/15 05:05:27;;;;;;;0.84;0.84;;;;;;;20.92;71.53;99939.73;;;;-50
2021/07/15 05:08:28;;;;;;;1.00;1.00;;;;;;;20.92;71.56;99942.00;;;;-52
2021/07/15 05:11:28;;;;;;;0.96;0.96;;;;;;;20.92;71.47;99947.87;;;;-52
2021/07/15 05:14:28;;;;;;;1.03;1.03;;;;;;;20.92;71.50;99950.31;;;;-52
2021/07/15 05:17:28;;;;;;;2.17;1.00;;;;;;;20.91;71.47;99956.75;;;;-51
2021/07/15 05:20:27;;;;;;;0.81;0.81;;;;;;;20.91;71.47;99967.75;;;;-52
2021/07/15 05:23:28;;;;;;;0.86;0.86;;;;;;;20.91;71.52;99970.61;;;;-52
2021/07/15 05:26:28;;;;;;;0.95;0.95;;;;;;;20.91;71.49;99969.80;;;;-59
2021/07/15 05:29:28;;;;;;;0.90;0.90;;;;;;;20.90;71.44;99969.97;;;;-59
2021/07/15 05:32:28;;;;;;;0.90;0.90;;;;;;;20.90;71.52;99973.22;;;;-58
2021/07/15 05:35:27;;;;;;;0.91;0.91;;;;;;;20.90;71.50;99971.69;;;;-50
2021/07/15 05:38:28;;;;;;;0.93;0.90;;;;;;;20.90;71.53;99965.42;;;;-58
2021/07/15 05:41:28;;;;;;;1.11;1.04;;;;;;;20.89;71.49;99959.53;;;;-59
2021/07/15 05:44:28;;;;;;;0.98;0.98;;;;;;;20.90;71.50;99964.03;;;;-49
2021/07/15 05:47:28;;;;;;;0.86;0.86;;;;;;;20.89;71.51;99967.36;;;;-52
2021/07/15 05:50:27;;;;;;;0.87;0.87;;;;;;;20.89;71.49;99965.08;;;;-50
2021/07/15 05:53:28;;;;;;;0.90;0.90;;;;;;;20.89;71.46;99968.89;;;;-52
2021/07/15 05:56:28;;;;;;;0.90;0.90;;;;;;;20.89;71.54;99964.34;;;;-52
2021/07/15 05:59:28;;;;;;;0.90;0.90;;;;;;;20.89;71.48;99957.59;;;;-53
2021/07/15 06:02:28;;;;;;;0.83;0.83;;;;;;;20.89;71.49;99954.17;;;;-52
2021/07/15 06:05:30;;;;;;;0.78;0.78;;;;;;;20.89;71.50;99955.64;;;;-51
2021/07/15 06:08:28;;;;;;;0.91;0.91;;;;;;;20.88;71.56;99962.25;;;;-51
2021/07/15 06:11:28;;;;;;;0.90;0.90;;;;;;;20.88;71.51;99962.66;;;;-59
2021/07/15 06:14:28;;;;;;;0.94;0.94;;;;;;;20.88;71.51;99965.26;;;;-49
2021/07/15 06:17:28;;;;;;;0.93;0.93;;;;;;;20.88;71.55;99972.27;;;;-52
2021/07/15 06:20:28;;;;;;;0.99;0.99;;;;;;;20.88;71.51;99975.53;;;;-59
2021/07/15 06:23:28;;;;;;;0.91;0.91;;;;;;;20.88;71.55;99972.59;;;;-52
2021/07/15 06:26:28;;;;;;;0.89;0.89;;;;;;;20.87;71.58;99973.14;;;;-52
2021/07/15 06:29:28;;;;;;;0.89;0.89;;;;;;;20.87;71.54;99973.72;;;;-51
2021/07/15 06:32:28;;;;;;;0.90;0.90;;;;;;;20.87;71.56;99972.75;;;;-52
2021/07/15 06:35:27;;;;;;;0.95;0.95;;;;;;;20.87;71.54;99971.19;;;;-50
2021/07/15 06:38:28;;;;;;;0.90;0.90;;;;;;;20.86;71.50;99973.01;;;;-49
2021/07/15 06:41:28;;;;;;;0.93;0.93;;;;;;;20.87;71.49;99975.34;;;;-52
2021/07/15 06:44:28;;;;;;;1.11;1.00;;;;;;;20.87;71.51;99976.66;;;;-52
2021/07/15 06:47:28;;;;;;;0.90;0.90;;;;;;;20.86;71.47;99975.94;;;;-52
2021/07/15 06:50:27;;;;;;;0.90;0.90;;;;;;;20.86;71.51;99979.45;;;;-52
2021/07/15 06:53:28;;;;;;;0.82;0.82;;;;;;;20.86;71.52;99976.20;;;;-51
2021/07/15 06:56:28;;;;;;;0.90;0.90;;;;;;;20.85;71.55;99968.27;;;;-51
2021/07/15 06:59:28;;;;;;;0.90;0.90;;;;;;;20.85;71.52;99964.28;;;;-51
2021/07/15 07:02:28;;;;;;;0.84;0.84;;;;;;;20.85;71.55;99976.58;;;;-51
2021/07/15 07:05:27;;;;;;;0.91;0.91;;;;;;;20.86;71.51;99989.14;;;;-51
2021/07/15 07:08:28;;;;;;;0.90;0.90;;;;;;;20.85;71.58;99988.14;;;;-51
2021/07/15 07:11:28;;;;;;;0.80;0.80;;;;;;;20.86;71.50;99988.16;;;;-52
2021/07/15 07:14:27;;;;;;;0.90;0.90;;;;;;;20.85;71.51;99988.80;;;;-52
2021/07/15 07:17:28;;;;;;;1.27;0.90;;;;;;;20.85;71.60;99989.53;;;;-52
2021/07/15 07:20:27;;;;;;;0.90;0.90;;;;;;;20.85;71.55;99992.23;;;;-53
2021/07/15 07:23:28;;;;;;;0.99;0.99;;;;;;;20.85;71.47;99988.23;;;;-52
2021/07/15 07:26:28;;;;;;;0.92;0.92;;;;;;;20.85;71.52;99990.02;;;;-52
2021/07/15 07:29:27;;;;;;;0.88;0.88;;;;;;;20.85;71.57;99991.09;;;;-52
2021/07/15 07:32:28;;;;;;;0.90;0.90;;;;;;;20.85;71.54;99990.44;;;;-49
2021/07/15 07:35:27;;;;;;;0.87;0.87;;;;;;;20.85;71.54;99990.03;;;;-49
2021/07/15 07:38:28;;;;;;;0.90;0.90;;;;;;;20.85;71.51;99991.66;;;;-49
2021/07/15 07:41:28;;;;;;;1.00;1.00;;;;;;;20.84;71.55;99997.14;;;;-49
2021/07/15 07:44:27;;;;;;;0.88;0.88;;;;;;;20.84;71.55;100002.92;;;;-49
2021/07/15 07:47:28;;;;;;;0.91;0.91;;;;;;;20.84;71.55;100002.75;;;;-49
2021/07/15 07:50:27;;;;;;;0.97;0.97;;;;;;;20.84;71.52;100002.84;;;;-50
2021/07/15 07:53:27;;;;;;;0.81;0.81;;;;;;;20.84;71.60;100004.70;;;;-49
2021/07/15 07:56:28;;;;;;;0.90;0.90;;;;;;;20.84;71.53;100007.31;;;;-50
2021/07/15 07:59:28;;;;;;;0.81;0.81;;;;;;;20.83;71.54;100011.29;;;;-50
2021/07/15 08:02:28;;;;;;;0.90;0.90;;;;;;;20.83;71.58;100014.48;;;;-49
2021/07/15 08:05:28;;;;;;;0.89;0.89;;;;;;;20.83;71.53;100017.97;;;;-49
2021/07/15 08:08:28;;;;;;;0.99;0.95;;;;;;;20.83;71.56;100021.31;;;;-52
2021/07/15 08:11:28;;;;;;;0.81;0.81;;;;;;;20.83;71.56;100024.48;;;;-52
2021/07/15 08:14:29;;;;;;;0.86;0.86;;;;;;;20.83;71.53;100028.31;;;;-51
2021/07/15 08:17:28;;;;;;;0.97;0.97;;;;;;;20.84;71.54;100029.48;;;;-51
2021/07/15 08:20:27;;;;;;;0.89;0.89;;;;;;;20.83;71.60;100028.16;;;;-52
2021/07/15 08:23:28;;;;;;;3.33;0.93;;;;;;;20.82;71.64;100032.08;;;;-54
2021/07/15 08:26:28;;;;;;;1.37;1.10;;;;;;;20.82;72.32;100033.79;;;;-56
2021/07/15 08:29:27;;;;;;;1.81;1.19;;;;;;;20.81;72.72;100034.43;;;;-58
2021/07/15 08:32:28;;;;;;;1.88;1.30;;;;;;;20.81;74.10;100040.13;;;;-53
2021/07/15 08:35:27;;;;;;;1.93;1.22;;;;;;;20.81;73.53;100044.54;;;;-52
2021/07/15 08:38:27;;;;;;;1.39;1.23;;;;;;;20.87;73.78;100046.28;;;;-52
2021/07/15 08:41:28;;;;;;;1.93;1.41;;;;;;;20.86;73.64;100054.21;;;;-50
2021/07/15 08:44:27;;;;;;;1.93;1.18;;;;;;;20.83;73.61;100055.69;;;;-56
2021/07/15 08:47:28;;;;;;;2.77;1.37;;;;;;;20.84;73.65;100056.27;;;;-52
2021/07/15 08:50:27;;;;;;;1.41;1.30;;;;;;;20.84;74.32;100051.54;;;;-54
2021/07/15 08:53:30;;;;;;;1.45;1.35;;;;;;;20.86;74.47;100053.65;;;;-51
2021/07/15 08:56:41;;;;;;;2.15;1.45;;;;;;;20.84;74.61;100047.38;;;;-51
2021/07/15 08:59:28;;;;;;;1.61;1.50;;;;;;;20.84;74.42;100054.14;;;;-50
2021/07/15 09:02:28;;;;;;;1.49;1.39;;;;;;;20.78;74.83;100057.83;;;;-65
2021/07/15 09:05:27;;;;;;;2.09;1.31;;;;;;;20.75;74.57;100059.31;;;;-53
2021/07/15 09:08:27;;;;;;;2.50;1.39;;;;;;;20.78;74.53;100061.66;;;;-52
2021/07/15 09:11:28;;;;;;;1.40;1.30;;;;;;;20.83;74.35;100067.82;;;;-52
2021/07/15 09:14:27;;;;;;;2.14;1.40;;;;;;;20.86;74.23;100071.64;;;;-54
2021/07/15 09:17:28;;;;;;;3.01;1.20;;;;;;;20.88;74.10;100074.16;;;;-56
2021/07/15 09:20:27;;;;;;;1.73;1.22;;;;;;;20.91;73.95;100074.86;;;;-51
2021/07/15 09:23:27;;;;;;;2.06;1.28;;;;;;;20.93;73.99;100072.41;;;;-50
2021/07/15 09:26:28;;;;;;;1.35;1.20;;;;;;;20.95;73.90;100074.60;;;;-51
2021/07/15 09:29:27;;;;;;;2.62;1.32;;;;;;;20.97;73.98;100075.56;;;;-52
2021/07/15 09:32:28;;;;;;;2.39;1.30;;;;;;;20.99;73.81;100079.45;;;;-60
2021/07/15 09:35:28;;;;;;;3.25;1.29;;;;;;;21.00;73.77;100078.80;;;;-60
2021/07/15 09:38:27;;;;;;;3.53;1.27;;;;;;;21.01;73.71;100076.84;;;;-51
2021/07/15 09:41:28;;;;;;;2.10;1.39;;;;;;;21.01;73.63;100070.16;;;;-53
2021/07/15 09:44:28;;;;;;;2.20;1.38;;;;;;;21.03;73.59;100062.09;;;;-53
2021/07/15 09:47:28;;;;;;;3.03;1.30;;;;;;;21.03;73.67;100056.88;;;;-54
2021/07/15 09:50:27;;;;;;;3.01;1.28;;;;;;;21.03;73.64;100057.44;;;;-53
2021/07/15 09:53:28;;;;;;;2.25;1.34;;;;;;;21.05;73.59;100054.25;;;;-54
2021/07/15 09:56:28;;;;;;;1.38;1.28;;;;;;;21.06;73.54;100050.48;;;;-51
2021/07/15 09:59:27;;;;;;;1.69;1.26;;;;;;;21.07;73.59;100044.06;;;;-50
2021/07/15 10:02:28;;;;;;;3.25;1.35;;;;;;;21.07;73.22;100051.88;;;;-51
2021/07/15 10:05:27;;;;;;;4.29;1.28;;;;;;;21.07;73.32;100057.09;;;;-51
2021/07/15 10:08:28;;;;;;;2.37;1.38;;;;;;;21.07;73.31;100056.52;;;;-51
2021/07/15 10:11:28;;;;;;;3.78;1.31;;;;;;;21.07;73.23;100055.29;;;;-51
2021/07/15 10:14:27;;;;;;;3.73;1.53;;;;;;;21.08;73.16;100051.86;;;;-56
2021/07/15 10:17:28;;;;;;;3.72;1.23;;;;;;;21.09;73.21;100057.89;;;;-57
2021/07/15 10:20:28;;;;;;;2.69;1.35;;;;;;;21.11;73.05;100062.12;;;;-53
2021/07/15 10:23:27;;;;;;;1.71;1.29;;;;;;;21.12;73.13;100068.29;;;;-48
2021/07/15 10:26:28;;;;;;;2.16;1.23;;;;;;;21.13;73.08;100072.13;;;;-51
2021/07/15 10:29:27;;;;;;;2.06;1.22;;;;;;;21.14;73.06;100077.23;;;;-52
2021/07/15 10:32:28;;;;;;;1.65;1.27;;;;;;;21.15;73.07;100082.22;;;;-52
2021/07/15 10:35:27;;;;;;;2.19;1.33;;;;;;;21.14;72.78;100079.44;;;;-53
2021/07/15 10:38:28;;;;;;;1.35;1.25;;;;;;;21.15;73.02;100072.38;;;;-52
2021/07/15 10:41:28;;;;;;;3.11;1.26;;;;;;;21.14;73.02;100068.84;;;;-53
2021/07/15 10:44:27;;;;;;;2.52;1.31;;;;;;;21.13;72.98;100065.03;;;;-53
2021/07/15 10:47:28;;;;;;;2.70;1.37;;;;;;;21.13;72.92;100060.80;;;;-52
2021/07/15 10:50:27;;;;;;;1.89;1.27;;;;;;;21.13;72.82;100058.69;;;;-53
2021/07/15 10:53:27;;;;;;;2.29;1.40;;;;;;;21.13;72.74;100056.48;;;;-52
2021/07/15 10:56:27;;;;;;;2.17;1.17;;;;;;;21.12;72.73;100059.34;;;;-52
2021/07/15 10:59:28;;;;;;;3.12;1.23;;;;;;;21.12;72.64;100064.06;;;;-58
2021/07/15 11:02:28;;;;;;;3.45;1.31;;;;;;;21.14;72.66;100069.27;;;;-51
2021/07/15 11:05:28;;;;;;;1.79;1.27;;;;;;;21.14;72.70;100072.20;;;;-51
2021/07/15 11:08:27;;;;;;;2.82;1.29;;;;;;;21.14;72.72;100070.39;;;;-59
2021/07/15 11:11:27;;;;;;;1.91;1.21;;;;;;;21.15;72.77;100077.65;;;;-60
2021/07/15 11:14:27;;;;;;;3.35;1.30;;;;;;;21.16;72.77;100080.25;;;;-53
2021/07/15 11:17:28;;;;;;;2.61;1.41;;;;;;;21.17;72.75;100080.18;;;;-53
2021/07/15 11:20:27;;;;;;;1.53;1.36;;;;;;;21.18;72.69;100077.22;;;;-51
2021/07/15 11:23:28;;;;;;;1.82;1.20;;;;;;;21.18;72.74;100076.15;;;;-52
2021/07/15 11:26:27;;;;;;;3.39;1.20;;;;;;;21.19;72.72;100081.30;;;;-50
2021/07/15 11:29:27;;;;;;;1.95;1.20;;;;;;;21.19;72.83;100088.05;;;;-59
2021/07/15 11:32:27;;;;;;;3.23;1.31;;;;;;;21.20;72.80;100089.50;;;;-59
2021/07/15 11:35:27;;;;;;;1.81;1.27;;;;;;;21.20;72.70;100089.09;;;;-59
2021/07/15 11:38:27;;;;;;;1.96;1.34;;;;;;;21.19;72.69;100086.67;;;;-59
2021/07/15 11:41:27;;;;;;;1.80;1.31;;;;;;;21.20;72.61;100086.50;;;;-60
2021/07/15 11:44:27;;;;;;;2.70;1.40;;;;;;;21.19;72.53;100087.58;;;;-52
2021/07/15 11:47:27;;;;;;;1.63;1.31;;;;;;;21.19;72.57;100090.67;;;;-60
2021/07/15 11:50:28;;;;;;;1.92;1.44;;;;;;;21.18;72.51;100089.27;;;;-52
2021/07/15 11:53:28;;;;;;;1.32;1.22;;;;;;;21.19;72.37;100087.65;;;;-52
2021/07/15 11:56:27;;;;;;;1.61;1.31;;;;;;;21.19;72.45;100086.92;;;;-52
2021/07/15 11:59:27;;;;;;;1.73;1.31;;;;;;;21.18;72.35;100093.03;;;;-52
2021/07/15 12:02:27;;;;;;;1.95;1.43;;;;;;;21.18;72.25;100097.02;;;;-52
2021/07/15 12:05:30;;;;;;;1.73;1.35;;;;;;;21.18;72.33;100100.36;;;;-52
2021/07/15 12:08:29;;;;;;;2.19;1.47;;;;;;;21.17;72.26;100100.46;;;;-52
2021/07/15 12:11:27;;;;;;;5.11;1.45;;;;;;;21.17;72.19;100096.62;;;;-52
2021/07/15 12:14:27;;;;;;;1.71;1.37;;;;;;;21.17;72.19;100098.18;;;;-52
2021/07/15 12:17:27;;;;;;;1.50;1.40;;;;;;;21.16;72.20;100098.33;;;;-52
2021/07/15 12:20:27;;;;;;;2.48;1.51;;;;;;;21.16;72.15;100101.58;;;;-59
2021/07/15 12:23:32;;;;;;;1.61;1.31;;;;;;;21.16;72.16;100103.64;;;;-60
2021/07/15 12:26:27;;;;;;;1.96;1.34;;;;;;;21.16;72.05;100111.78;;;;-60
2021/07/15 12:29:28;;;;;;;3.39;1.30;;;;;;;21.16;72.05;100109.42;;;;-60
2021/07/15 12:32:28;;;;;;;1.56;1.39;;;;;;;21.16;72.03;100107.21;;;;-59
2021/07/15 12:35:29;;;;;;;3.13;1.49;;;;;;;21.16;72.03;100114.55;;;;-54
2021/07/15 12:38:28;;;;;;;1.77;1.33;;;;;;;21.16;72.12;100118.37;;;;-54
2021/07/15 12:41:27;;;;;;;1.63;1.28;;;;;;;21.15;72.01;100122.39;;;;-54
2021/07/15 12:44:28;;;;;;;2.21;1.27;;;;;;;21.16;72.04;100128.73;;;;-54
2021/07/15 12:47:27;;;;;;;1.76;1.41;;;;;;;21.15;71.96;100128.34;;;;-54
2021/07/15 12:50:27;;;;;;;1.53;1.31;;;;;;;21.15;71.94;100123.30;;;;-60
2021/07/15 12:53:31;;;;;;;1.32;1.22;;;;;;;21.15;71.99;100117.67;;;;-59
2021/07/15 12:56:27;;;;;;;1.40;1.30;;;;;;;21.14;71.95;100114.81;;;;-59
2021/07/15 12:59:28;;;;;;;2.63;1.41;;;;;;;21.15;71.98;100121.26;;;;-59
2021/07/15 13:02:27;;;;;;;2.16;1.30;;;;;;;21.16;71.93;100122.05;;;;-61
2021/07/15 13:05:27;;;;;;;2.59;1.49;;;;;;;21.17;72.04;100117.33;;;;-55
2021/07/15 13:09:15;;;;;;;4.03;2.02;;;;;;;21.16;72.11;100111.03;;;;-60
2021/07/15 13:14:28;;;;;;;3.52;2.11;;;;;;;21.19;72.19;100109.09;;;;-67
2021/07/15 13:17:27;;;;;;;4.13;2.42;;;;;;;21.20;72.33;100103.61;;;;-59
2021/07/15 13:20:27;;;;;;;5.51;2.23;;;;;;;21.21;72.17;100097.67;;;;-61
2021/07/15 13:23:27;;;;;;;3.89;2.29;;;;;;;21.21;72.36;100093.34;;;;-57
2021/07/15 13:26:27;;;;;;;4.59;2.24;;;;;;;21.22;72.17;100096.73;;;;-61
2021/07/15 13:29:27;;;;;;;3.83;2.37;;;;;;;21.23;72.35;100102.70;;;;-64
2021/07/15 13:32:27;;;;;;;8.95;2.31;;;;;;;21.23;72.28;100102.22;;;;-62
2021/07/15 13:35:27;;;;;;;7.15;2.21;;;;;;;21.24;72.31;100102.70;;;;-61
2021/07/15 13:38:28;;;;;;;4.57;2.14;;;;;;;21.25;72.34;100099.91;;;;-68
2021/07/15 13:41:27;;;;;;;3.73;2.28;;;;;;;21.25;72.22;100102.53;;;;-65
2021/07/15 13:44:27;;;;;;;3.51;2.43;;;;;;;21.26;72.11;100096.22;;;;-59
2021/07/15 13:47:27;;;;;;;3.91;2.35;;;;;;;21.27;72.25;100097.44;;;;-60
2021/07/15 13:50:28;;;;;;;4.55;2.71;;;;;;;21.25;72.35;100094.87;;;;-65
2021/07/15 13:53:28;;;;;;;7.72;2.78;;;;;;;21.26;72.15;100099.97;;;;-62
2021/07/15 13:56:29;;;;;;;5.02;2.65;;;;;;;21.27;72.20;100099.97;;;;-66
2021/07/15 13:59:27;;;;;;;5.24;2.30;;;;;;;21.29;72.33;100100.04;;;;-55
2021/07/15 14:02:27;;;;;;;3.51;2.23;;;;;;;21.29;72.24;100099.81;;;;-58
2021/07/15 14:05:29;;;;;;;3.59;2.35;;;;;;;21.30;72.23;100103.45;;;;-61
2021/07/15 14:08:27;;;;;;;4.99;2.38;;;;;;;21.30;72.31;100104.19;;;;-58
2021/07/15 14:11:27;;;;;;;6.15;2.35;;;;;;;21.32;72.24;100107.62;;;;-60
2021/07/15 14:14:28;;;;;;;3.83;2.38;;;;;;;21.32;72.32;100106.80;;;;-57
2021/07/15 14:17:29;;;;;;;4.30;2.30;;;;;;;21.32;72.35;100098.88;;;;-55
2021/07/15 14:20:27;;;;;;;3.06;2.28;;;;;;;21.34;72.33;100098.80;;;;-55
2021/07/15 14:23:28;;;;;;;3.40;2.12;;;;;;;21.34;72.27;100102.94;;;;-57
2021/07/15 14:26:27;;;;;;;4.91;2.23;;;;;;;21.36;72.22;100104.33;;;;-59
2021/07/15 14:29:27;;;;;;;3.59;2.39;;;;;;;21.35;72.17;100101.13;;;;-59
2021/07/15 14:32:27;;;;;;;3.86;2.40;;;;;;;21.35;72.15;100096.81;;;;-51
2021/07/15 14:35:27;;;;;;;6.07;2.44;;;;;;;21.35;72.26;100100.72;;;;-51
2021/07/15 14:38:28;;;;;;;4.08;2.17;;;;;;;21.35;72.33;100088.27;;;;-51
2021/07/15 14:41:27;;;;;;;4.53;2.21;;;;;;;21.36;72.24;100088.34;;;;-59
2021/07/15 14:44:27;;;;;;;4.01;2.41;;;;;;;21.37;72.29;100091.42;;;;-51
2021/07/15 14:47:27;;;;;;;4.76;2.40;;;;;;;21.37;72.32;100090.88;;;;-57
2021/07/15 14:50:28;;;;;;;4.47;2.18;;;;;;;21.38;72.18;100085.80;;;;-55
2021/07/15 14:53:28;;;;;;;4.05;2.18;;;;;;;21.39;72.28;100087.25;;;;-56
2021/07/15 14:56:28;;;;;;;4.41;2.35;;;;;;;21.39;72.22;100087.27;;;;-59
2021/07/15 14:59:27;;;;;;;6.05;2.13;;;;;;;21.40;72.27;100087.51;;;;-60
2021/07/15 15:02:28;;;;;;;4.60;2.13;;;;;;;21.37;72.17;100086.14;;;;-59
2021/07/15 15:05:27;;;;;;;3.56;2.25;;;;;;;21.36;72.14;100088.09;;;;-57
2021/07/15 15:08:27;;;;;;;4.01;2.21;;;;;;;21.37;72.12;100092.50;;;;-65
2021/07/15 15:11:33;;;;;;;3.55;2.17;;;;;;;21.39;72.11;100094.33;;;;-58
2021/07/15 15:14:27;;;;;;;2.99;2.12;;;;;;;21.40;72.19;100090.61;;;;-51
2021/07/15 15:17:27;;;;;;;4.86;2.29;;;;;;;21.40;72.13;100091.08;;;;-57
2021/07/15 15:20:27;;;;;;;3.41;2.07;;;;;;;21.42;72.16;100096.64;;;;-54
2021/07/15 15:23:27;;;;;;;3.17;2.29;;;;;;;21.43;72.20;100088.56;;;;-53
2021/07/15 15:26:27;;;;;;;9.30;2.31;;;;;;;21.44;72.13;100085.70;;;;-56
2021/07/15 15:29:27;;;;;;;2.79;2.09;;;;;;;21.45;72.24;100086.58;;;;-49
2021/07/15 15:32:27;;;;;;;4.73;2.09;;;;;;;21.46;72.22;100092.38;;;;-52
2021/07/15 15:35:27;;;;;;;6.31;2.17;;;;;;;21.47;72.15;100092.20;;;;-54
2021/07/15 15:38:28;;;;;;;2.57;1.81;;;;;;;21.47;72.17;100086.41;;;;-51
2021/07/15 15:41:27;;;;;;;3.92;1.96;;;;;;;21.48;72.13;100089.43;;;;-53
2021/07/15 15:44:27;;;;;;;3.25;2.11;;;;;;;21.48;72.14;100092.36;;;;-52
2021/07/15 15:47:27;;;;;;;3.50;2.17;;;;;;;21.49;72.14;100092.17;;;;-51
2021/07/15 15:50:29;;;;;;;3.55;2.08;;;;;;;21.50;72.11;100092.90;;;;-50
2021/07/15 15:53:27;;;;;;;3.47;2.18;;;;;;;21.50;72.14;100097.30;;;;-51
2021/07/15 15:56:27;;;;;;;4.27;2.31;;;;;;;21.50;72.07;100100.58;;;;-51
2021/07/15 15:59:28;;;;;;;3.78;2.15;;;;;;;21.52;72.08;100106.02;;;;-56
2021/07/15 16:02:27;;;;;;;2.57;2.06;;;;;;;21.50;72.18;100109.22;;;;-51
2021/07/15 16:05:27;;;;;;;3.06;2.01;;;;;;;21.51;72.18;100112.38;;;;-54
2021/07/15 16:08:27;;;;;;;3.91;2.00;;;;;;;21.51;72.01;100116.46;;;;-54
2021/07/15 16:11:27;;;;;;;3.62;2.26;;;;;;;21.51;72.05;100114.43;;;;-52
2021/07/15 16:14:27;;;;;;;3.99;1.92;;;;;;;21.51;72.12;100112.30;;;;-49
2021/07/15 16:17:27;;;;;;;4.20;1.93;;;;;;;21.51;72.11;100110.50;;;;-51
2021/07/15 16:20:28;;;;;;;3.01;1.81;;;;;;;21.52;72.01;100116.61;;;;-60
2021/07/15 16:23:27;;;;;;;3.01;2.05;;;;;;;21.52;72.07;100125.60;;;;-64
2021/07/15 16:26:27;;;;;;;5.24;2.11;;;;;;;21.53;72.03;100130.06;;;;-61
2021/07/15 16:29:27;;;;;;;2.95;2.11;;;;;;;21.54;72.01;100135.05;;;;-57
2021/07/15 16:32:27;;;;;;;3.59;1.83;;;;;;;21.53;71.99;100141.63;;;;-57
2021/07/15 16:35:27;;;;;;;3.73;1.83;;;;;;;21.53;72.08;100144.02;;;;-58
2021/07/15 16:38:30;;;;;;;3.81;1.84;;;;;;;21.52;72.02;100149.98;;;;-57
2021/07/15 16:41:27;;;;;;;3.41;1.98;;;;;;;21.50;71.91;100153.25;;;;-54
2021/07/15 16:44:27;;;;;;;2.38;2.05;;;;;;;21.51;71.84;100154.30;;;;-60
2021/07/15 16:47:27;;;;;;;2.98;1.85;;;;;;;21.51;71.95;100154.63;;;;-60
2021/07/15 16:50:27;;;;;;;4.42;1.99;;;;;;;21.52;72.05;100160.58;;;;-65
2021/07/15 16:53:28;;;;;;;3.15;1.95;;;;;;;21.52;72.02;100162.02;;;;-62